createdAt,value
2023-01-23T00:01:17.146Z,33.28
2023-01-23T00:03:44.324Z,33.60
2023-01-23T00:06:16.324Z,33.90
2023-01-23T00:08:45.028Z,31.40
2023-01-23T00:11:20.788Z,30.92
2023-01-23T00:13:48.099Z,35.42
2023-01-23T00:16:18.134Z,34.03
2023-01-23T00:18:45.946Z,33.30
2023-01-23T00:21:15.754Z,34.55
2023-01-23T00:23:51.165Z,35.72
2023-01-23T00:26:21.353Z,37.53
2023-01-23T00:28:48.719Z,33.25
2023-01-23T00:31:21.694Z,38.20
2023-01-23T00:33:48.742Z,38.50
2023-01-23T00:36:16.015Z,39.13
2023-01-23T00:38:43.194Z,37.30
2023-01-23T00:41:10.009Z,34.90
2023-01-23T00:43:36.815Z,33.00
2023-01-23T00:46:04.091Z,37.65
2023-01-23T00:48:31.570Z,37.58
2023-01-23T00:50:58.921Z,38.20
2023-01-23T00:53:26.060Z,36.63
2023-01-23T00:55:53.776Z,39.25
2023-01-23T00:58:21.338Z,38.53
2023-01-23T01:03:25.319Z,36.35
2023-01-23T01:05:53.648Z,36.33
2023-01-23T01:08:20.458Z,36.08
2023-01-23T01:10:47.325Z,38.25
2023-01-23T01:13:14.572Z,39.35
2023-01-23T01:15:41.432Z,42.10
2023-01-23T01:18:08.241Z,37.22
2023-01-23T01:20:35.403Z,41.05
2023-01-23T01:23:03.016Z,39.13
2023-01-23T01:25:30.648Z,43.40
2023-01-23T01:27:57.455Z,38.15
2023-01-23T01:30:27.211Z,42.50
2023-01-23T01:32:55.222Z,42.03
2023-01-23T01:35:22.782Z,36.75
2023-01-23T01:37:50.583Z,41.72
2023-01-23T01:40:24.278Z,40.47
2023-01-23T01:43:07.006Z,37.55
2023-01-23T01:46:11.519Z,38.67
2023-01-23T01:49:07.848Z,39.90
2023-01-23T01:51:34.667Z,41.20
2023-01-23T01:54:05.186Z,39.28
2023-01-23T01:56:43.756Z,43.30
2023-01-23T01:59:12.134Z,43.90
2023-01-23T02:01:42.478Z,41.15
2023-01-23T02:04:09.981Z,43.70
2023-01-23T02:06:37.043Z,45.15
2023-01-23T02:09:16.295Z,39.97
2023-01-23T02:11:43.631Z,41.65
2023-01-23T02:14:10.749Z,40.88
2023-01-23T02:16:41.219Z,48.22
2023-01-23T02:19:26.015Z,41.42
2023-01-23T02:22:00.495Z,39.17
2023-01-23T02:24:42.670Z,44.50
2023-01-23T02:27:09.530Z,41.38
2023-01-23T02:29:45.935Z,40.58
2023-01-23T02:32:12.945Z,48.83
2023-01-23T02:34:40.226Z,43.80
2023-01-23T02:37:08.767Z,41.33
2023-01-23T02:39:35.697Z,44.00
2023-01-23T02:42:03.094Z,43.70
2023-01-23T02:44:34.378Z,42.80
2023-01-23T02:47:05.065Z,42.88
2023-01-23T02:49:32.579Z,43.15
2023-01-23T02:51:59.604Z,43.15
2023-01-23T02:54:27.064Z,35.67
2023-01-23T02:56:54.000Z,39.78
2023-01-23T02:59:39.720Z,42.30
2023-01-23T03:02:07.246Z,38.60
2023-01-23T03:04:34.328Z,42.83
2023-01-23T03:07:01.296Z,36.65
2023-01-23T03:09:28.665Z,38.92
2023-01-23T03:11:55.978Z,39.55
2023-01-23T03:14:24.234Z,37.78
2023-01-23T03:16:53.823Z,38.92
2023-01-23T03:19:27.104Z,39.53
2023-01-23T03:21:54.763Z,41.83
2023-01-23T03:24:22.618Z,39.53
2023-01-23T03:26:50.678Z,43.03
2023-01-23T03:29:38.716Z,43.30
2023-01-23T03:32:06.284Z,43.60
2023-01-23T03:34:33.583Z,42.65
2023-01-23T03:37:01.388Z,37.92
2023-01-23T03:39:46.718Z,39.97
2023-01-23T03:42:13.567Z,38.97
2023-01-23T03:44:40.768Z,38.05
2023-01-23T03:47:07.734Z,46.50
2023-01-23T03:49:34.870Z,41.78
2023-01-23T03:52:02.291Z,39.42
2023-01-23T03:54:29.357Z,42.78
2023-01-23T03:56:56.342Z,42.75
2023-01-23T03:59:23.167Z,44.08
2023-01-23T04:01:50.199Z,44.78
2023-01-23T04:04:17.471Z,39.60
2023-01-23T04:06:44.623Z,45.50
2023-01-23T04:09:12.992Z,43.97
2023-01-23T04:11:40.028Z,46.85
2023-01-23T04:14:06.850Z,42.05
2023-01-23T04:16:33.772Z,40.20
2023-01-23T04:19:00.642Z,41.67
2023-01-23T04:21:27.765Z,46.35
2023-01-23T04:23:54.640Z,45.40
2023-01-23T04:26:21.566Z,46.63
2023-01-23T04:28:48.406Z,44.83
2023-01-23T04:31:15.395Z,49.67
2023-01-23T04:33:42.268Z,52.20
2023-01-23T04:36:10.450Z,47.53
2023-01-23T04:38:37.634Z,51.13
2023-01-23T04:41:04.911Z,46.60
2023-01-23T04:43:31.960Z,49.15
2023-01-23T04:45:58.838Z,59.85
2023-01-23T04:48:26.092Z,51.72
2023-01-23T04:50:53.124Z,50.30
2023-01-23T04:53:20.008Z,52.20
2023-01-23T04:55:49.249Z,50.60
2023-01-23T04:58:17.487Z,54.60
2023-01-23T05:00:44.312Z,47.58
2023-01-23T05:03:11.171Z,51.85
2023-01-23T05:05:38.088Z,51.92
2023-01-23T05:08:05.359Z,50.10
2023-01-23T05:10:35.223Z,50.53
2023-01-23T05:13:02.121Z,51.63
2023-01-23T05:15:30.788Z,52.75
2023-01-23T05:17:58.085Z,52.17
2023-01-23T05:20:25.198Z,50.80
2023-01-23T05:22:54.990Z,57.63
2023-01-23T05:25:24.833Z,53.22
2023-01-23T05:27:52.056Z,51.30
2023-01-23T05:30:22.286Z,52.42
2023-01-23T05:32:49.558Z,55.22
2023-01-23T05:35:16.793Z,55.83
2023-01-23T05:37:43.613Z,55.05
2023-01-23T05:40:13.612Z,53.67
2023-01-23T05:42:40.508Z,53.40
2023-01-23T05:45:07.860Z,54.08
2023-01-23T05:47:34.815Z,54.70
2023-01-23T05:50:01.735Z,53.53
2023-01-23T05:52:28.812Z,53.30
2023-01-23T05:54:55.705Z,51.92
2023-01-23T05:57:22.720Z,61.08
2023-01-23T05:59:49.630Z,54.78
2023-01-23T06:02:16.930Z,53.85
2023-01-23T06:04:43.846Z,54.97
2023-01-23T06:07:14.639Z,55.15
2023-01-23T06:09:41.422Z,54.00
2023-01-23T06:12:09.981Z,56.25
2023-01-23T06:14:37.249Z,55.20
2023-01-23T06:17:04.876Z,51.33
2023-01-23T06:19:32.012Z,57.92
2023-01-23T06:21:59.008Z,57.85
2023-01-23T06:24:26.126Z,54.72
2023-01-23T06:26:53.275Z,58.25
2023-01-23T06:29:20.319Z,56.65
2023-01-23T06:31:47.728Z,61.78
2023-01-23T06:34:15.878Z,65.60
2023-01-23T06:36:42.854Z,58.05
2023-01-23T06:39:13.590Z,60.97
2023-01-23T06:41:40.450Z,64.10
2023-01-23T06:44:07.782Z,64.47
2023-01-23T06:46:35.111Z,66.85
2023-01-23T06:49:04.540Z,59.70
2023-01-23T06:51:33.852Z,65.65
2023-01-23T06:54:00.947Z,60.47
2023-01-23T06:56:27.945Z,61.47
2023-01-23T06:58:55.076Z,64.45
2023-01-23T07:01:22.089Z,63.83
2023-01-23T07:03:49.048Z,64.25
2023-01-23T07:06:16.201Z,62.65
2023-01-23T07:08:43.207Z,61.13
2023-01-23T07:11:10.421Z,62.75
2023-01-23T07:13:37.739Z,61.45
2023-01-23T07:16:05.695Z,63.08
2023-01-23T07:18:33.328Z,62.65
2023-01-23T07:21:01.053Z,55.45
2023-01-23T07:23:27.929Z,65.72
2023-01-23T07:26:03.838Z,56.85
2023-01-23T07:28:30.990Z,59.58
2023-01-23T07:30:59.568Z,62.13
2023-01-23T07:33:27.398Z,63.38
2023-01-23T07:35:54.654Z,55.83
2023-01-23T07:38:23.409Z,61.30
2023-01-23T07:40:51.337Z,62.55
2023-01-23T07:43:18.640Z,58.90
2023-01-23T07:45:45.624Z,61.22
2023-01-23T07:48:12.602Z,62.75
2023-01-23T07:50:39.473Z,66.13
2023-01-23T07:53:06.380Z,71.78
2023-01-23T07:55:33.869Z,59.35
2023-01-23T07:58:01.042Z,57.22
2023-01-23T08:00:29.883Z,60.13
2023-01-23T08:02:57.334Z,59.75
2023-01-23T08:05:24.830Z,59.70
2023-01-23T08:08:00.742Z,59.10
2023-01-23T08:10:34.973Z,60.80
2023-01-23T08:13:01.947Z,66.10
2023-01-23T08:15:28.827Z,64.28
2023-01-23T08:17:55.710Z,68.93
2023-01-23T08:20:23.265Z,64.90
2023-01-23T08:22:50.345Z,71.68
2023-01-23T08:25:17.346Z,66.30
2023-01-23T08:27:44.180Z,69.03
2023-01-23T08:30:11.975Z,76.85
2023-01-23T08:32:38.833Z,71.78
2023-01-23T08:35:06.102Z,70.32
2023-01-23T08:37:34.457Z,75.05
2023-01-23T08:40:01.365Z,80.40
2023-01-23T08:42:28.354Z,79.10
2023-01-23T08:44:55.828Z,74.35
2023-01-23T08:47:22.879Z,77.90
2023-01-23T08:49:49.766Z,78.80
2023-01-23T08:52:16.649Z,75.00
2023-01-23T08:54:43.506Z,74.38
2023-01-23T08:57:10.330Z,79.30
2023-01-23T08:59:37.281Z,80.38
2023-01-23T09:02:04.229Z,74.35
2023-01-23T09:04:31.116Z,72.72
2023-01-23T09:06:58.194Z,74.05
2023-01-23T09:09:25.318Z,74.03
2023-01-23T09:11:52.407Z,80.10
2023-01-23T09:14:19.281Z,76.22
2023-01-23T09:16:46.165Z,77.13
2023-01-23T09:19:13.129Z,79.18
2023-01-23T09:21:40.135Z,76.10
2023-01-23T09:24:07.802Z,79.47
2023-01-23T09:26:34.787Z,70.55
2023-01-23T09:29:01.857Z,76.22
2023-01-23T09:31:28.827Z,77.85
2023-01-23T09:33:55.755Z,79.70
2023-01-23T09:36:37.528Z,75.70
2023-01-23T09:39:09.004Z,70.10
2023-01-23T09:41:36.103Z,74.47
2023-01-23T09:44:30.455Z,72.97
2023-01-23T09:47:04.665Z,73.63
2023-01-23T09:49:41.315Z,73.47
2023-01-23T09:52:24.117Z,79.25
2023-01-23T09:54:58.253Z,81.97
2023-01-23T09:57:31.067Z,82.35
2023-01-23T10:00:13.350Z,70.32
2023-01-23T10:02:43.558Z,72.95
2023-01-23T10:05:15.822Z,70.55
2023-01-23T10:08:19.444Z,75.05
2023-01-23T10:11:08.512Z,65.88
2023-01-23T10:13:49.005Z,72.82
2023-01-23T10:16:48.753Z,69.80
2023-01-23T10:19:19.512Z,68.00
2023-01-23T10:22:09.398Z,69.43
2023-01-23T10:24:48.283Z,72.22
2023-01-23T10:27:31.767Z,67.38
2023-01-23T10:30:04.264Z,66.22
2023-01-23T10:32:37.807Z,74.32
2023-01-23T10:35:15.691Z,68.63
2023-01-23T10:37:51.738Z,68.70
2023-01-23T10:40:42.494Z,71.18
2023-01-23T10:43:15.691Z,66.10
2023-01-23T10:45:44.493Z,68.78
2023-01-23T10:48:32.692Z,68.63
2023-01-23T10:51:04.350Z,64.55
2023-01-23T10:53:31.450Z,64.78
2023-01-23T10:56:00.834Z,71.97
2023-01-23T10:58:39.495Z,71.40
2023-01-23T11:01:23.618Z,68.57
2023-01-23T11:03:51.676Z,68.90
2023-01-23T11:06:25.976Z,71.93
2023-01-23T11:09:00.475Z,78.13
2023-01-23T11:11:29.834Z,71.50
2023-01-23T11:14:21.706Z,72.97
2023-01-23T11:17:04.773Z,65.30
2023-01-23T11:19:33.535Z,68.80
2023-01-23T11:22:05.570Z,75.75
2023-01-23T11:24:40.754Z,65.72
2023-01-23T11:27:28.307Z,64.30
2023-01-23T11:30:33.196Z,66.53
2023-01-23T11:33:13.308Z,63.47
2023-01-23T11:35:50.677Z,64.13
2023-01-23T11:38:30.657Z,55.58
2023-01-23T11:40:58.192Z,55.95
2023-01-23T11:43:25.104Z,55.03
2023-01-23T11:46:13.757Z,60.20
2023-01-23T11:49:14.903Z,57.30
2023-01-23T11:52:18.035Z,60.22
2023-01-23T11:55:26.544Z,61.65
2023-01-23T11:58:27.056Z,57.42
2023-01-23T12:01:33.983Z,55.55
2023-01-23T12:04:10.327Z,55.03
2023-01-23T12:06:47.727Z,58.63
2023-01-23T12:09:22.025Z,56.10
2023-01-23T12:11:58.481Z,51.38
2023-01-23T12:14:30.482Z,53.40
2023-01-23T12:17:00.040Z,57.63
2023-01-23T12:19:41.452Z,52.28
2023-01-23T12:22:29.518Z,55.50
2023-01-23T12:25:33.731Z,49.50
2023-01-23T12:28:23.335Z,46.85
2023-01-23T12:31:05.762Z,59.97
2023-01-23T12:33:43.478Z,45.25
2023-01-23T12:36:25.569Z,47.15
2023-01-23T12:39:21.329Z,64.05
2023-01-23T12:42:03.707Z,56.67
2023-01-23T12:44:36.135Z,49.90
2023-01-23T12:47:12.426Z,70.88
2023-01-23T12:50:01.745Z,44.58
2023-01-23T12:52:41.451Z,43.10
2023-01-23T12:55:30.963Z,45.17
2023-01-23T12:58:07.992Z,47.42
2023-01-23T13:01:03.914Z,49.05
2023-01-23T13:03:45.704Z,44.38
2023-01-23T13:06:18.558Z,49.00
2023-01-23T13:09:17.709Z,44.47
2023-01-23T13:12:03.821Z,40.55
2023-01-23T13:14:37.507Z,47.85
2023-01-23T13:17:32.170Z,47.45
2023-01-23T13:20:37.918Z,42.67
2023-01-23T13:23:22.680Z,41.22
2023-01-23T13:25:50.895Z,40.00
2023-01-23T13:28:49.670Z,32.90
2023-01-23T13:31:42.480Z,39.78
2023-01-23T13:34:18.990Z,35.25
2023-01-23T13:36:47.055Z,39.13
2023-01-23T13:39:16.954Z,41.60
2023-01-23T13:42:14.095Z,37.53
2023-01-23T13:45:29.134Z,37.47
2023-01-23T14:21:30.323Z,49.28
2023-01-23T14:24:03.842Z,42.00
2023-01-23T14:26:32.921Z,36.53
2023-01-23T14:29:03.064Z,41.40
2023-01-23T14:31:33.020Z,46.00
2023-01-23T14:34:17.832Z,45.38
2023-01-23T14:37:02.529Z,48.42
2023-01-23T14:39:32.340Z,42.92
2023-01-23T14:42:02.655Z,46.17
2023-01-23T14:44:42.687Z,45.35
2023-01-23T14:47:29.396Z,42.67
2023-01-23T14:49:57.097Z,49.72
2023-01-23T14:52:29.711Z,50.83
2023-01-23T14:55:03.121Z,47.58
2023-01-23T14:57:35.345Z,45.50
2023-01-23T15:00:03.558Z,48.03
2023-01-23T15:02:32.489Z,53.25
2023-01-23T15:05:23.380Z,46.58
2023-01-23T15:08:03.293Z,49.38
2023-01-23T15:10:40.930Z,49.47
2023-01-23T15:13:26.277Z,47.42
2023-01-23T15:15:57.014Z,49.13
2023-01-23T15:18:29.337Z,49.85
2023-01-23T15:21:08.186Z,52.75
2023-01-23T15:23:40.318Z,52.13
2023-01-23T15:26:12.255Z,55.30
2023-01-23T15:28:41.970Z,56.38
2023-01-23T15:31:40.467Z,50.17
2023-01-23T15:34:16.476Z,54.63
2023-01-23T15:36:47.713Z,53.40
2023-01-23T15:39:30.725Z,52.17
2023-01-23T15:42:14.152Z,55.05
2023-01-23T15:44:42.723Z,54.40
2023-01-23T15:47:10.003Z,60.25
2023-01-23T15:49:39.236Z,55.40
2023-01-23T15:52:15.380Z,59.40
2023-01-23T15:54:42.198Z,55.72
2023-01-23T15:57:14.470Z,52.22
2023-01-23T15:59:41.822Z,50.50
2023-01-23T16:02:30.084Z,51.83
2023-01-23T16:04:58.781Z,49.88
2023-01-23T16:07:34.911Z,48.85
2023-01-23T16:10:12.777Z,47.90
2023-01-23T16:12:40.162Z,50.05
2023-01-23T16:15:33.022Z,46.45
2023-01-23T16:18:02.882Z,49.47
2023-01-23T16:20:36.357Z,50.65
2023-01-23T16:23:14.511Z,49.20
2023-01-23T16:25:52.523Z,47.40
2023-01-23T16:28:22.594Z,47.45
2023-01-23T16:30:50.879Z,44.05
2023-01-23T16:33:18.768Z,47.88
2023-01-23T16:35:49.501Z,49.10
2023-01-23T16:38:27.457Z,44.38
2023-01-23T16:40:56.812Z,49.72
2023-01-23T16:43:26.604Z,49.25
2023-01-23T16:45:56.203Z,47.20
2023-01-23T16:48:27.926Z,45.58
2023-01-23T16:51:08.341Z,47.58
2023-01-23T16:53:39.033Z,46.05
2023-01-23T16:56:09.407Z,45.05
2023-01-23T16:58:40.708Z,49.65
2023-01-23T17:01:19.264Z,45.78
2023-01-23T17:04:02.167Z,44.75
2023-01-23T17:06:35.923Z,57.22
2023-01-23T17:09:10.442Z,48.08
2023-01-23T17:11:41.711Z,44.35
2023-01-23T17:14:21.419Z,46.78
2023-01-23T17:17:15.551Z,47.65
2023-01-23T17:19:43.101Z,44.95
2023-01-23T17:22:32.673Z,45.72
2023-01-23T17:24:59.676Z,43.35
2023-01-23T17:27:28.343Z,48.45
2023-01-23T17:29:55.554Z,47.67
2023-01-23T17:32:31.087Z,44.20
2023-01-23T17:35:01.747Z,45.75
2023-01-23T17:37:34.277Z,44.50
2023-01-23T17:40:02.914Z,44.85
2023-01-23T17:42:30.378Z,42.78
2023-01-23T17:44:58.596Z,48.42
2023-01-23T17:47:42.267Z,41.65
2023-01-23T17:50:27.358Z,43.47
2023-01-23T17:52:55.075Z,42.38
2023-01-23T17:55:25.790Z,44.00
2023-01-23T17:57:52.834Z,47.42
2023-01-23T18:00:20.969Z,45.33
2023-01-23T18:03:06.206Z,45.15
2023-01-23T18:05:33.709Z,43.85
2023-01-23T18:08:00.767Z,44.58
2023-01-23T18:10:29.791Z,45.92
2023-01-23T18:13:14.959Z,45.22
2023-01-23T18:16:00.659Z,40.60
2023-01-23T18:18:38.291Z,43.90
2023-01-23T18:21:07.955Z,41.90
2023-01-23T18:23:37.243Z,41.92
2023-01-23T18:26:05.165Z,39.10
2023-01-23T18:28:44.897Z,41.97
2023-01-23T18:31:24.247Z,44.95
2023-01-23T18:34:14.371Z,40.67
2023-01-23T18:37:12.612Z,39.33
2023-01-23T18:39:48.282Z,39.78
2023-01-23T18:42:15.704Z,36.70
2023-01-23T18:44:50.900Z,37.13
2023-01-23T18:47:18.181Z,37.70
2023-01-23T18:49:46.112Z,40.22
2023-01-23T18:52:25.703Z,38.97
2023-01-23T18:55:12.955Z,37.47
2023-01-23T18:57:51.723Z,35.42
2023-01-23T19:00:24.649Z,38.97
2023-01-23T19:03:01.626Z,41.75
2023-01-23T19:05:32.775Z,37.63
2023-01-23T19:08:02.324Z,38.22
2023-01-23T19:10:47.096Z,36.72
2023-01-23T19:13:44.704Z,38.83
2023-01-23T19:16:31.658Z,39.03
2023-01-23T19:19:30.661Z,35.58
2023-01-23T19:21:59.045Z,35.33
2023-01-23T19:24:28.349Z,38.42
2023-01-23T19:26:55.821Z,33.50
2023-01-23T19:29:23.480Z,38.45
2023-01-23T19:32:06.926Z,33.17
2023-01-23T19:34:35.018Z,34.88
2023-01-23T19:37:05.835Z,37.70
2023-01-23T19:39:32.782Z,37.50
2023-01-23T19:42:00.447Z,32.42
2023-01-23T19:44:29.967Z,35.17
2023-01-23T19:46:58.186Z,34.72
2023-01-23T19:49:25.847Z,35.85
2023-01-23T19:51:53.068Z,35.55
2023-01-23T19:54:31.798Z,35.47
2023-01-23T19:56:58.699Z,36.53
2023-01-23T19:59:26.498Z,37.80
2023-01-23T20:01:54.097Z,35.28
2023-01-23T20:04:23.112Z,38.08
2023-01-23T20:06:52.006Z,35.30
2023-01-23T20:09:20.254Z,37.70
2023-01-23T20:11:47.682Z,39.08
2023-01-23T20:14:14.592Z,34.40
2023-01-23T20:16:43.592Z,33.22
2023-01-23T20:19:15.602Z,34.47
2023-01-23T20:21:42.765Z,36.97
2023-01-23T20:24:09.732Z,36.97
2023-01-23T20:26:36.895Z,37.67
2023-01-23T20:29:07.978Z,36.20
2023-01-23T20:31:36.002Z,40.88
2023-01-23T20:34:03.198Z,38.38
2023-01-23T20:36:30.336Z,37.40
2023-01-23T20:38:57.345Z,40.83
2023-01-23T20:41:24.392Z,41.65
2023-01-23T20:43:51.632Z,42.28
2023-01-23T20:46:19.399Z,38.03
2023-01-23T20:48:46.612Z,42.08
2023-01-23T20:51:16.358Z,43.17
2023-01-23T20:53:44.141Z,43.80
2023-01-23T20:56:14.031Z,44.45
2023-01-23T20:59:06.594Z,43.38
2023-01-23T21:01:57.639Z,44.25
2023-01-23T21:04:31.087Z,44.97
2023-01-23T21:06:58.166Z,43.13
2023-01-23T21:09:25.808Z,41.03
2023-01-23T21:11:53.507Z,41.30
2023-01-23T21:14:21.749Z,42.30
2023-01-23T21:16:49.124Z,43.10
2023-01-23T21:19:28.792Z,44.38
2023-01-23T21:21:55.780Z,45.58
2023-01-23T21:24:22.905Z,47.03
2023-01-23T21:26:50.424Z,47.03
2023-01-23T21:29:17.555Z,48.75
2023-01-23T21:31:44.998Z,45.83
2023-01-23T21:34:14.034Z,44.65
2023-01-23T21:36:42.473Z,44.67
2023-01-23T21:39:11.120Z,45.70
2023-01-23T21:41:37.936Z,43.75
2023-01-23T21:44:04.981Z,44.42
2023-01-23T21:46:32.214Z,47.25
2023-01-23T21:48:59.362Z,42.58
2023-01-23T21:51:27.845Z,45.22
2023-01-23T21:53:54.947Z,44.67
2023-01-23T21:56:24.430Z,44.38
2023-01-23T21:58:51.477Z,41.33
2023-01-23T22:01:33.652Z,45.13
2023-01-23T22:04:24.531Z,47.33
2023-01-23T22:06:55.360Z,45.20
2023-01-23T22:09:27.066Z,43.75
2023-01-23T22:11:55.738Z,46.30
2023-01-23T22:14:22.822Z,51.28
2023-01-23T22:16:50.852Z,51.85
2023-01-23T22:19:24.142Z,45.83
2023-01-23T22:21:53.170Z,43.05
2023-01-23T22:24:20.384Z,46.70
2023-01-23T22:26:47.462Z,43.90
2023-01-23T22:29:15.126Z,42.80
2023-01-23T22:31:42.529Z,40.35
2023-01-23T22:34:09.568Z,44.58
2023-01-23T22:36:36.644Z,43.08
2023-01-23T22:39:04.283Z,41.95
2023-01-23T22:41:32.303Z,40.40
2023-01-23T22:44:01.824Z,37.45
2023-01-23T22:46:28.916Z,40.80
2023-01-23T22:48:55.872Z,37.90
2023-01-23T22:51:27.300Z,39.10
2023-01-23T22:53:55.803Z,41.00
2023-01-23T22:56:24.383Z,36.75
2023-01-23T22:58:53.287Z,42.10
2023-01-23T23:01:23.161Z,43.55
2023-01-23T23:03:50.890Z,38.53
2023-01-23T23:06:18.523Z,40.90
2023-01-23T23:08:47.896Z,45.38
2023-01-23T23:11:25.856Z,40.42
2023-01-23T23:13:53.059Z,43.78
2023-01-23T23:16:23.475Z,45.80
2023-01-23T23:18:52.781Z,46.05
2023-01-23T23:21:25.193Z,46.25
2023-01-23T23:23:55.039Z,49.15
2023-01-23T23:26:21.915Z,46.13
2023-01-23T23:28:48.868Z,56.47
2023-01-23T23:31:16.070Z,50.33
2023-01-23T23:33:43.068Z,50.83
2023-01-23T23:36:10.268Z,53.47
2023-01-23T23:38:37.489Z,51.78
2023-01-23T23:41:06.986Z,50.28
2023-01-23T23:43:34.584Z,51.15
2023-01-23T23:46:04.348Z,57.65
2023-01-23T23:48:33.046Z,52.30
2023-01-23T23:51:01.261Z,51.70
2023-01-23T23:53:28.148Z,50.15
2023-01-23T23:55:55.101Z,48.50
2023-01-23T23:58:23.864Z,50.78
